sensor_id;sensor_type;location;lat;lon;timestamp;P1;durP1;ratioP1;P2;durP2;ratioP2
13605;SDS011;6874;52.084;5.090;2023-06-04T00:02:13;181.80;;;175.90;;
13605;SDS011;6874;52.084;5.090;2023-06-04T00:04:38;181.53;;;175.63;;
13605;SDS011;6874;52.084;5.090;2023-06-04T00:07:04;181.03;;;175.17;;
13605;SDS011;6874;52.084;5.090;2023-06-04T00:09:30;188.63;;;182.50;;
13605;SDS011;6874;52.084;5.090;2023-06-04T00:11:56;179.33;;;173.50;;
13605;SDS011;6874;52.084;5.090;2023-06-04T00:14:22;178.77;;;172.97;;
13605;SDS011;6874;52.084;5.090;2023-06-04T00:16:48;186.80;;;180.73;;
13605;SDS011;6874;52.084;5.090;2023-06-04T00:19:14;204.00;;;197.37;;
13605;SDS011;6874;52.084;5.090;2023-06-04T00:21:39;213.23;;;206.27;;
13605;SDS011;6874;52.084;5.090;2023-06-04T00:24:08;224.67;;;217.33;;
13605;SDS011;6874;52.084;5.090;2023-06-04T00:26:33;226.20;;;218.80;;
13605;SDS011;6874;52.084;5.090;2023-06-04T00:29:00;226.10;;;218.73;;
13605;SDS011;6874;52.084;5.090;2023-06-04T00:31:26;218.20;;;211.10;;
13605;SDS011;6874;52.084;5.090;2023-06-04T00:33:51;212.47;;;205.57;;
13605;SDS011;6874;52.084;5.090;2023-06-04T00:36:17;193.63;;;187.37;;
13605;SDS011;6874;52.084;5.090;2023-06-04T00:38:42;176.67;;;170.97;;
13605;SDS011;6874;52.084;5.090;2023-06-04T00:41:08;162.57;;;157.30;;
13605;SDS011;6874;52.084;5.090;2023-06-04T00:43:34;153.83;;;148.83;;
13605;SDS011;6874;52.084;5.090;2023-06-04T00:46:00;139.87;;;135.33;;
13605;SDS011;6874;52.084;5.090;2023-06-04T00:48:28;131.70;;;127.43;;
13605;SDS011;6874;52.084;5.090;2023-06-04T00:50:55;128.70;;;124.50;;
13605;SDS011;6874;52.084;5.090;2023-06-04T00:53:21;123.53;;;119.53;;
13605;SDS011;6874;52.084;5.090;2023-06-04T00:55:48;118.77;;;114.93;;
13605;SDS011;6874;52.084;5.090;2023-06-04T00:58:15;113.40;;;109.70;;
13605;SDS011;6874;52.084;5.090;2023-06-04T01:00:41;101.83;;;98.53;;
13605;SDS011;6874;52.084;5.090;2023-06-04T01:03:10;98.33;;;95.17;;
13605;SDS011;6874;52.084;5.090;2023-06-04T01:06:00;95.23;;;92.13;;
13605;SDS011;6874;52.084;5.090;2023-06-04T01:08:46;87.00;;;84.20;;
13605;SDS011;6874;52.084;5.090;2023-06-04T01:11:19;86.77;;;83.93;;
13605;SDS011;6874;52.084;5.090;2023-06-04T01:14:06;82.27;;;79.57;;
13605;SDS011;6874;52.084;5.090;2023-06-04T01:16:37;82.63;;;79.93;;
13605;SDS011;6874;52.084;5.090;2023-06-04T01:22:17;76.90;;;74.40;;
13605;SDS011;6874;52.084;5.090;2023-06-04T01:25:03;70.73;;;68.43;;
13605;SDS011;6874;52.084;5.090;2023-06-04T01:27:34;69.83;;;67.53;;
13605;SDS011;6874;52.084;5.090;2023-06-04T01:30:00;69.13;;;66.90;;
13605;SDS011;6874;52.084;5.090;2023-06-04T01:32:27;70.50;;;68.20;;
13605;SDS011;6874;52.084;5.090;2023-06-04T01:34:54;67.23;;;65.03;;
13605;SDS011;6874;52.084;5.090;2023-06-04T01:37:20;63.67;;;61.57;;
13605;SDS011;6874;52.084;5.090;2023-06-04T01:39:46;62.23;;;60.20;;
13605;SDS011;6874;52.084;5.090;2023-06-04T01:42:12;59.77;;;57.83;;
13605;SDS011;6874;52.084;5.090;2023-06-04T01:44:37;55.70;;;53.87;;
13605;SDS011;6874;52.084;5.090;2023-06-04T01:47:03;55.73;;;53.90;;
13605;SDS011;6874;52.084;5.090;2023-06-04T01:49:29;54.17;;;52.40;;
13605;SDS011;6874;52.084;5.090;2023-06-04T01:51:54;53.93;;;52.17;;
13605;SDS011;6874;52.084;5.090;2023-06-04T01:54:21;53.50;;;51.77;;
13605;SDS011;6874;52.084;5.090;2023-06-04T01:56:47;48.63;;;47.03;;
13605;SDS011;6874;52.084;5.090;2023-06-04T01:59:13;54.53;;;52.77;;
13605;SDS011;6874;52.084;5.090;2023-06-04T02:01:41;51.10;;;49.43;;
13605;SDS011;6874;52.084;5.090;2023-06-04T02:04:06;53.57;;;51.80;;
13605;SDS011;6874;52.084;5.090;2023-06-04T02:06:32;51.10;;;49.40;;
13605;SDS011;6874;52.084;5.090;2023-06-04T02:08:57;51.37;;;49.67;;
13605;SDS011;6874;52.084;5.090;2023-06-04T02:11:25;56.20;;;54.40;;
13605;SDS011;6874;52.084;5.090;2023-06-04T02:13:51;54.33;;;52.53;;
13605;SDS011;6874;52.084;5.090;2023-06-04T02:16:16;59.23;;;57.33;;
13605;SDS011;6874;52.084;5.090;2023-06-04T02:18:42;55.67;;;53.87;;
13605;SDS011;6874;52.084;5.090;2023-06-04T02:21:07;54.20;;;52.40;;
13605;SDS011;6874;52.084;5.090;2023-06-04T02:23:33;57.90;;;56.00;;
13605;SDS011;6874;52.084;5.090;2023-06-04T02:25:59;55.30;;;53.50;;
13605;SDS011;6874;52.084;5.090;2023-06-04T02:28:24;55.80;;;53.93;;
13605;SDS011;6874;52.084;5.090;2023-06-04T02:30:50;56.83;;;54.97;;
13605;SDS011;6874;52.084;5.090;2023-06-04T02:33:15;51.47;;;49.77;;
13605;SDS011;6874;52.084;5.090;2023-06-04T02:35:41;47.50;;;45.90;;
13605;SDS011;6874;52.084;5.090;2023-06-04T02:38:07;47.27;;;45.67;;
13605;SDS011;6874;52.084;5.090;2023-06-04T02:40:32;48.27;;;46.67;;
13605;SDS011;6874;52.084;5.090;2023-06-04T02:42:58;42.27;;;40.87;;
13605;SDS011;6874;52.084;5.090;2023-06-04T02:45:24;36.67;;;35.47;;
13605;SDS011;6874;52.084;5.090;2023-06-04T02:47:49;33.30;;;32.20;;
13605;SDS011;6874;52.084;5.090;2023-06-04T02:50:15;30.27;;;29.27;;
13605;SDS011;6874;52.084;5.090;2023-06-04T02:52:41;25.73;;;24.90;;
13605;SDS011;6874;52.084;5.090;2023-06-04T02:55:07;24.23;;;23.47;;
13605;SDS011;6874;52.084;5.090;2023-06-04T02:57:34;24.03;;;23.27;;
13605;SDS011;6874;52.084;5.090;2023-06-04T03:00:00;20.97;;;20.30;;
13605;SDS011;6874;52.084;5.090;2023-06-04T03:02:27;18.70;;;18.13;;
13605;SDS011;6874;52.084;5.090;2023-06-04T03:04:53;18.00;;;17.47;;
13605;SDS011;6874;52.084;5.090;2023-06-04T03:07:20;16.23;;;15.73;;
13605;SDS011;6874;52.084;5.090;2023-06-04T03:09:47;15.63;;;15.13;;
13605;SDS011;6874;52.084;5.090;2023-06-04T03:12:14;15.90;;;15.40;;
13605;SDS011;6874;52.084;5.090;2023-06-04T03:14:39;15.00;;;14.57;;
13605;SDS011;6874;52.084;5.090;2023-06-04T03:17:05;15.93;;;15.43;;
13605;SDS011;6874;52.084;5.090;2023-06-04T03:19:38;16.03;;;15.53;;
13605;SDS011;6874;52.084;5.090;2023-06-04T03:22:06;15.13;;;14.67;;
13605;SDS011;6874;52.084;5.090;2023-06-04T03:24:39;16.07;;;15.57;;
13605;SDS011;6874;52.084;5.090;2023-06-04T03:27:06;17.07;;;16.57;;
13605;SDS011;6874;52.084;5.090;2023-06-04T03:29:34;16.83;;;16.33;;
13605;SDS011;6874;52.084;5.090;2023-06-04T03:32:00;17.70;;;17.20;;
13605;SDS011;6874;52.084;5.090;2023-06-04T03:34:26;20.00;;;19.40;;
13605;SDS011;6874;52.084;5.090;2023-06-04T03:36:52;19.83;;;19.23;;
13605;SDS011;6874;52.084;5.090;2023-06-04T03:39:19;23.90;;;23.20;;
13605;SDS011;6874;52.084;5.090;2023-06-04T03:41:45;25.40;;;24.60;;
13605;SDS011;6874;52.084;5.090;2023-06-04T03:44:12;31.03;;;30.03;;
13605;SDS011;6874;52.084;5.090;2023-06-04T03:46:39;32.13;;;31.13;;
13605;SDS011;6874;52.084;5.090;2023-06-04T03:49:05;36.23;;;35.10;;
13605;SDS011;6874;52.084;5.090;2023-06-04T03:51:30;37.33;;;36.13;;
13605;SDS011;6874;52.084;5.090;2023-06-04T03:53:57;38.90;;;37.70;;
13605;SDS011;6874;52.084;5.090;2023-06-04T03:56:23;42.27;;;40.93;;
13605;SDS011;6874;52.084;5.090;2023-06-04T03:58:51;43.90;;;42.50;;
13605;SDS011;6874;52.084;5.090;2023-06-04T04:01:17;44.23;;;42.83;;
13605;SDS011;6874;52.084;5.090;2023-06-04T04:03:43;42.53;;;41.17;;
13605;SDS011;6874;52.084;5.090;2023-06-04T04:06:13;40.53;;;39.23;;
13605;SDS011;6874;52.084;5.090;2023-06-04T04:08:39;42.87;;;41.47;;
13605;SDS011;6874;52.084;5.090;2023-06-04T04:11:07;38.60;;;37.37;;
13605;SDS011;6874;52.084;5.090;2023-06-04T04:13:33;35.00;;;33.90;;
13605;SDS011;6874;52.084;5.090;2023-06-04T04:15:59;31.60;;;30.60;;
13605;SDS011;6874;52.084;5.090;2023-06-04T04:18:24;28.10;;;27.23;;
13605;SDS011;6874;52.084;5.090;2023-06-04T04:20:50;23.10;;;22.40;;
13605;SDS011;6874;52.084;5.090;2023-06-04T04:23:16;22.97;;;22.27;;
13605;SDS011;6874;52.084;5.090;2023-06-04T04:25:42;20.90;;;20.27;;
13605;SDS011;6874;52.084;5.090;2023-06-04T04:28:09;21.40;;;20.73;;
13605;SDS011;6874;52.084;5.090;2023-06-04T04:30:35;19.77;;;19.17;;
13605;SDS011;6874;52.084;5.090;2023-06-04T04:33:02;19.17;;;18.57;;
13605;SDS011;6874;52.084;5.090;2023-06-04T04:35:30;20.40;;;19.77;;
13605;SDS011;6874;52.084;5.090;2023-06-04T04:37:57;19.33;;;18.73;;
13605;SDS011;6874;52.084;5.090;2023-06-04T04:40:23;19.90;;;19.30;;
13605;SDS011;6874;52.084;5.090;2023-06-04T04:42:49;20.10;;;19.50;;
13605;SDS011;6874;52.084;5.090;2023-06-04T04:45:14;19.63;;;19.03;;
13605;SDS011;6874;52.084;5.090;2023-06-04T04:47:40;21.43;;;20.77;;
13605;SDS011;6874;52.084;5.090;2023-06-04T04:50:05;20.93;;;20.30;;
13605;SDS011;6874;52.084;5.090;2023-06-04T04:52:31;23.87;;;23.13;;
13605;SDS011;6874;52.084;5.090;2023-06-04T04:54:57;23.57;;;22.83;;
13605;SDS011;6874;52.084;5.090;2023-06-04T04:57:26;22.77;;;22.07;;
13605;SDS011;6874;52.084;5.090;2023-06-04T04:59:51;22.73;;;22.00;;
13605;SDS011;6874;52.084;5.090;2023-06-04T05:02:17;22.07;;;21.37;;
13605;SDS011;6874;52.084;5.090;2023-06-04T05:04:42;21.60;;;20.93;;
13605;SDS011;6874;52.084;5.090;2023-06-04T05:07:08;20.27;;;19.67;;
13605;SDS011;6874;52.084;5.090;2023-06-04T05:09:34;19.23;;;18.63;;
13605;SDS011;6874;52.084;5.090;2023-06-04T05:11:59;19.97;;;19.37;;
13605;SDS011;6874;52.084;5.090;2023-06-04T05:14:25;18.00;;;17.47;;
13605;SDS011;6874;52.084;5.090;2023-06-04T05:16:51;17.57;;;17.07;;
13605;SDS011;6874;52.084;5.090;2023-06-04T05:19:16;16.73;;;16.23;;
13605;SDS011;6874;52.084;5.090;2023-06-04T05:21:42;16.57;;;16.07;;
13605;SDS011;6874;52.084;5.090;2023-06-04T05:24:08;17.23;;;16.73;;
13605;SDS011;6874;52.084;5.090;2023-06-04T05:26:35;16.63;;;16.13;;
13605;SDS011;6874;52.084;5.090;2023-06-04T05:29:00;16.93;;;16.43;;
13605;SDS011;6874;52.084;5.090;2023-06-04T05:31:26;17.10;;;16.60;;
13605;SDS011;6874;52.084;5.090;2023-06-04T05:33:52;16.87;;;16.37;;
13605;SDS011;6874;52.084;5.090;2023-06-04T05:36:19;17.87;;;17.33;;
13605;SDS011;6874;52.084;5.090;2023-06-04T05:38:44;16.37;;;15.87;;
13605;SDS011;6874;52.084;5.090;2023-06-04T05:41:10;18.23;;;17.63;;
13605;SDS011;6874;52.084;5.090;2023-06-04T05:43:37;18.87;;;18.27;;
13605;SDS011;6874;52.084;5.090;2023-06-04T05:46:02;19.57;;;18.97;;
13605;SDS011;6874;52.084;5.090;2023-06-04T05:48:28;21.13;;;20.47;;
13605;SDS011;6874;52.084;5.090;2023-06-04T05:50:53;20.97;;;20.33;;
13605;SDS011;6874;52.084;5.090;2023-06-04T05:53:19;20.27;;;19.67;;
13605;SDS011;6874;52.084;5.090;2023-06-04T05:55:44;20.33;;;19.73;;
13605;SDS011;6874;52.084;5.090;2023-06-04T05:58:10;21.27;;;20.60;;
13605;SDS011;6874;52.084;5.090;2023-06-04T06:00:36;21.73;;;21.03;;
13605;SDS011;6874;52.084;5.090;2023-06-04T06:03:01;23.17;;;22.43;;
13605;SDS011;6874;52.084;5.090;2023-06-04T06:05:27;22.67;;;21.97;;
13605;SDS011;6874;52.084;5.090;2023-06-04T06:07:52;29.17;;;28.23;;
13605;SDS011;6874;52.084;5.090;2023-06-04T06:10:18;32.37;;;31.30;;
13605;SDS011;6874;52.084;5.090;2023-06-04T06:12:44;30.17;;;29.20;;
13605;SDS011;6874;52.084;5.090;2023-06-04T06:15:09;33.20;;;32.13;;
13605;SDS011;6874;52.084;5.090;2023-06-04T06:17:37;33.30;;;32.20;;
13605;SDS011;6874;52.084;5.090;2023-06-04T06:20:03;36.53;;;35.37;;
13605;SDS011;6874;52.084;5.090;2023-06-04T06:22:32;39.87;;;38.60;;
13605;SDS011;6874;52.084;5.090;2023-06-04T06:24:58;47.60;;;46.07;;
13605;SDS011;6874;52.084;5.090;2023-06-04T06:27:23;48.87;;;47.27;;
13605;SDS011;6874;52.084;5.090;2023-06-04T06:29:50;46.00;;;44.53;;
13605;SDS011;6874;52.084;5.090;2023-06-04T06:32:16;51.17;;;49.50;;
13605;SDS011;6874;52.084;5.090;2023-06-04T06:34:41;54.53;;;52.77;;
13605;SDS011;6874;52.084;5.090;2023-06-04T06:37:07;51.57;;;49.87;;
13605;SDS011;6874;52.084;5.090;2023-06-04T06:39:32;57.23;;;55.40;;
13605;SDS011;6874;52.084;5.090;2023-06-04T06:41:58;63.53;;;61.50;;
13605;SDS011;6874;52.084;5.090;2023-06-04T06:44:23;60.47;;;58.50;;
13605;SDS011;6874;52.084;5.090;2023-06-04T06:46:49;61.93;;;59.93;;
13605;SDS011;6874;52.084;5.090;2023-06-04T06:49:15;58.13;;;56.27;;
13605;SDS011;6874;52.084;5.090;2023-06-04T06:51:41;60.03;;;58.10;;
13605;SDS011;6874;52.084;5.090;2023-06-04T06:54:08;62.27;;;60.27;;
13605;SDS011;6874;52.084;5.090;2023-06-04T06:56:34;63.10;;;61.07;;
13605;SDS011;6874;52.084;5.090;2023-06-04T06:59:00;60.40;;;58.43;;
13605;SDS011;6874;52.084;5.090;2023-06-04T07:01:26;54.07;;;52.30;;
13605;SDS011;6874;52.084;5.090;2023-06-04T07:03:51;47.37;;;45.87;;
13605;SDS011;6874;52.084;5.090;2023-06-04T07:06:17;45.77;;;44.27;;
13605;SDS011;6874;52.084;5.090;2023-06-04T07:08:42;41.97;;;40.63;;
13605;SDS011;6874;52.084;5.090;2023-06-04T07:11:08;47.13;;;45.60;;
13605;SDS011;6874;52.084;5.090;2023-06-04T07:13:37;43.70;;;42.30;;
13605;SDS011;6874;52.084;5.090;2023-06-04T07:16:06;40.83;;;39.53;;
13605;SDS011;6874;52.084;5.090;2023-06-04T07:18:31;38.33;;;37.13;;
13605;SDS011;6874;52.084;5.090;2023-06-04T07:20:57;35.57;;;34.43;;
13605;SDS011;6874;52.084;5.090;2023-06-04T07:23:23;36.67;;;35.47;;
13605;SDS011;6874;52.084;5.090;2023-06-04T07:25:51;27.80;;;26.93;;
13605;SDS011;6874;52.084;5.090;2023-06-04T07:28:18;25.70;;;24.90;;
13605;SDS011;6874;52.084;5.090;2023-06-04T07:30:47;21.97;;;21.27;;
13605;SDS011;6874;52.084;5.090;2023-06-04T07:33:12;18.00;;;17.47;;
13605;SDS011;6874;52.084;5.090;2023-06-04T07:35:38;16.67;;;16.17;;
13605;SDS011;6874;52.084;5.090;2023-06-04T07:38:03;18.17;;;17.57;;
13605;SDS011;6874;52.084;5.090;2023-06-04T07:40:29;20.50;;;19.90;;
13605;SDS011;6874;52.084;5.090;2023-06-04T07:42:55;30.43;;;29.47;;
13605;SDS011;6874;52.084;5.090;2023-06-04T07:45:20;51.70;;;50.03;;
13605;SDS011;6874;52.084;5.090;2023-06-04T07:47:46;69.37;;;67.17;;
13605;SDS011;6874;52.084;5.090;2023-06-04T07:50:12;69.73;;;67.50;;
13605;SDS011;6874;52.084;5.090;2023-06-04T07:52:37;56.57;;;54.73;;
13605;SDS011;6874;52.084;5.090;2023-06-04T07:55:03;43.63;;;42.23;;
13605;SDS011;6874;52.084;5.090;2023-06-04T07:57:30;40.53;;;39.23;;
13605;SDS011;6874;52.084;5.090;2023-06-04T07:59:56;40.00;;;38.70;;
13605;SDS011;6874;52.084;5.090;2023-06-04T08:02:24;49.70;;;48.07;;
13605;SDS011;6874;52.084;5.090;2023-06-04T08:04:50;62.10;;;60.00;;
13605;SDS011;6874;52.084;5.090;2023-06-04T08:07:16;85.47;;;82.57;;
13605;SDS011;6874;52.084;5.090;2023-06-04T08:09:41;130.00;;;125.53;;
13605;SDS011;6874;52.084;5.090;2023-06-04T08:12:08;177.43;;;171.33;;
13605;SDS011;6874;52.084;5.090;2023-06-04T08:14:35;214.40;;;207.17;;
13605;SDS011;6874;52.084;5.090;2023-06-04T08:17:00;218.17;;;210.90;;
13605;SDS011;6874;52.084;5.090;2023-06-04T08:19:26;212.63;;;205.63;;
13605;SDS011;6874;52.084;5.090;2023-06-04T08:21:51;219.87;;;212.57;;
13605;SDS011;6874;52.084;5.090;2023-06-04T08:24:17;208.77;;;201.90;;
13605;SDS011;6874;52.084;5.090;2023-06-04T08:26:42;188.17;;;181.97;;
13605;SDS011;6874;52.084;5.090;2023-06-04T08:29:08;165.87;;;160.37;;
13605;SDS011;6874;52.084;5.090;2023-06-04T08:31:34;140.73;;;135.97;;
13605;SDS011;6874;52.084;5.090;2023-06-04T08:33:59;134.27;;;129.67;;
13605;SDS011;6874;52.084;5.090;2023-06-04T08:36:26;135.13;;;130.43;;
13605;SDS011;6874;52.084;5.090;2023-06-04T08:38:52;145.97;;;140.83;;
13605;SDS011;6874;52.084;5.090;2023-06-04T08:43:56;126.40;;;121.97;;
13605;SDS011;6874;52.084;5.090;2023-06-04T08:46:22;125.87;;;121.47;;
13605;SDS011;6874;52.084;5.090;2023-06-04T08:48:49;129.33;;;124.83;;
13605;SDS011;6874;52.084;5.090;2023-06-04T08:51:15;131.57;;;127.03;;
13605;SDS011;6874;52.084;5.090;2023-06-04T08:53:41;152.37;;;147.17;;
13605;SDS011;6874;52.084;5.090;2023-06-04T08:56:07;176.47;;;170.57;;
13605;SDS011;6874;52.084;5.090;2023-06-04T08:58:33;199.70;;;193.00;;
13605;SDS011;6874;52.084;5.090;2023-06-04T09:01:01;208.23;;;201.27;;
13605;SDS011;6874;52.084;5.090;2023-06-04T09:03:26;206.73;;;199.93;;
13605;SDS011;6874;52.084;5.090;2023-06-04T09:05:54;182.90;;;176.87;;
13605;SDS011;6874;52.084;5.090;2023-06-04T09:08:21;169.90;;;164.27;;
13605;SDS011;6874;52.084;5.090;2023-06-04T09:10:49;155.10;;;149.97;;
13605;SDS011;6874;52.084;5.090;2023-06-04T09:13:18;136.93;;;132.43;;
13605;SDS011;6874;52.084;5.090;2023-06-04T09:15:46;130.30;;;126.00;;
13605;SDS011;6874;52.084;5.090;2023-06-04T09:18:24;116.00;;;112.10;;
13605;SDS011;6874;52.084;5.090;2023-06-04T09:20:59;112.23;;;108.53;;
13605;SDS011;6874;52.084;5.090;2023-06-04T09:23:34;102.10;;;98.73;;
13605;SDS011;6874;52.084;5.090;2023-06-04T09:26:08;106.77;;;103.27;;
13605;SDS011;6874;52.084;5.090;2023-06-04T09:28:34;114.60;;;110.83;;
13605;SDS011;6874;52.084;5.090;2023-06-04T09:31:01;110.57;;;106.90;;
13605;SDS011;6874;52.084;5.090;2023-06-04T09:33:27;86.43;;;83.63;;
13605;SDS011;6874;52.084;5.090;2023-06-04T09:35:57;71.37;;;69.03;;
13605;SDS011;6874;52.084;5.090;2023-06-04T09:38:23;52.70;;;51.00;;
13605;SDS011;6874;52.084;5.090;2023-06-04T09:40:57;39.73;;;38.43;;
13605;SDS011;6874;52.084;5.090;2023-06-04T09:43:23;36.80;;;35.60;;
13605;SDS011;6874;52.084;5.090;2023-06-04T09:45:48;44.67;;;43.27;;
13605;SDS011;6874;52.084;5.090;2023-06-04T09:48:21;51.37;;;49.67;;
13605;SDS011;6874;52.084;5.090;2023-06-04T09:50:47;60.73;;;58.70;;
13605;SDS011;6874;52.084;5.090;2023-06-04T09:53:19;64.70;;;62.50;;
13605;SDS011;6874;52.084;5.090;2023-06-04T09:55:57;83.53;;;80.57;;
13605;SDS011;6874;52.084;5.090;2023-06-04T09:58:30;103.67;;;99.73;;
13605;SDS011;6874;52.084;5.090;2023-06-04T10:00:57;137.37;;;132.07;;
13605;SDS011;6874;52.084;5.090;2023-06-04T10:03:24;166.17;;;159.83;;
13605;SDS011;6874;52.084;5.090;2023-06-04T10:05:53;170.07;;;163.83;;
13605;SDS011;6874;52.084;5.090;2023-06-04T10:08:21;148.40;;;143.17;;
13605;SDS011;6874;52.084;5.090;2023-06-04T10:10:49;142.33;;;137.40;;
13605;SDS011;6874;52.084;5.090;2023-06-04T10:13:18;139.90;;;135.10;;
13605;SDS011;6874;52.084;5.090;2023-06-04T10:15:45;151.97;;;146.97;;
13605;SDS011;6874;52.084;5.090;2023-06-04T10:18:11;158.63;;;153.47;;
13605;SDS011;6874;52.084;5.090;2023-06-04T10:20:40;161.53;;;156.33;;
13605;SDS011;6874;52.084;5.090;2023-06-04T10:23:06;186.93;;;181.00;;
13605;SDS011;6874;52.084;5.090;2023-06-04T10:25:33;195.30;;;189.10;;
13605;SDS011;6874;52.084;5.090;2023-06-04T10:28:03;219.07;;;212.13;;
13605;SDS011;6874;52.084;5.090;2023-06-04T10:30:29;253.23;;;245.20;;
13605;SDS011;6874;52.084;5.090;2023-06-04T10:32:56;305.63;;;295.60;;
13605;SDS011;6874;52.084;5.090;2023-06-04T10:35:29;346.40;;;334.87;;
13605;SDS011;6874;52.084;5.090;2023-06-04T10:38:06;394.73;;;381.27;;
13605;SDS011;6874;52.084;5.090;2023-06-04T10:40:33;394.93;;;380.97;;
13605;SDS011;6874;52.084;5.090;2023-06-04T10:43:04;386.63;;;372.57;;
13605;SDS011;6874;52.084;5.090;2023-06-04T10:45:30;341.00;;;328.70;;
13605;SDS011;6874;52.084;5.090;2023-06-04T10:48:03;248.27;;;239.37;;
13605;SDS011;6874;52.084;5.090;2023-06-04T10:50:30;195.40;;;188.40;;
13605;SDS011;6874;52.084;5.090;2023-06-04T10:52:59;159.37;;;153.70;;
13605;SDS011;6874;52.084;5.090;2023-06-04T10:55:28;163.97;;;158.13;;
13605;SDS011;6874;52.084;5.090;2023-06-04T10:57:55;162.53;;;156.67;;
13605;SDS011;6874;52.084;5.090;2023-06-04T11:00:33;204.97;;;197.70;;
13605;SDS011;6874;52.084;5.090;2023-06-04T11:03:11;260.93;;;251.63;;
13605;SDS011;6874;52.084;5.090;2023-06-04T11:05:38;316.33;;;305.43;;
13605;SDS011;6874;52.084;5.090;2023-06-04T11:08:05;301.37;;;291.23;;
13605;SDS011;6874;52.084;5.090;2023-06-04T11:10:32;277.90;;;268.63;;
13605;SDS011;6874;52.084;5.090;2023-06-04T11:13:03;261.87;;;253.27;;
13605;SDS011;6874;52.084;5.090;2023-06-04T11:15:45;249.03;;;241.00;;
13605;SDS011;6874;52.084;5.090;2023-06-04T11:18:20;217.77;;;210.87;;
13605;SDS011;6874;52.084;5.090;2023-06-04T11:20:47;185.77;;;179.87;;
13605;SDS011;6874;52.084;5.090;2023-06-04T11:23:15;189.07;;;183.07;;
13605;SDS011;6874;52.084;5.090;2023-06-04T11:25:41;195.77;;;189.60;;
13605;SDS011;6874;52.084;5.090;2023-06-04T11:28:14;189.90;;;183.90;;
13605;SDS011;6874;52.084;5.090;2023-06-04T11:30:41;202.87;;;196.47;;
13605;SDS011;6874;52.084;5.090;2023-06-04T11:33:07;208.83;;;202.30;;
13605;SDS011;6874;52.084;5.090;2023-06-04T11:35:39;228.03;;;220.93;;
13605;SDS011;6874;52.084;5.090;2023-06-04T11:38:06;224.53;;;217.43;;
13605;SDS011;6874;52.084;5.090;2023-06-04T11:40:32;240.70;;;233.10;;
13605;SDS011;6874;52.084;5.090;2023-06-04T11:42:58;258.37;;;250.13;;
13605;SDS011;6874;52.084;5.090;2023-06-04T11:45:23;283.87;;;274.77;;
13605;SDS011;6874;52.084;5.090;2023-06-04T11:47:54;272.53;;;263.77;;
13605;SDS011;6874;52.084;5.090;2023-06-04T11:50:26;298.10;;;288.30;;
13605;SDS011;6874;52.084;5.090;2023-06-04T11:52:53;306.73;;;296.63;;
13605;SDS011;6874;52.084;5.090;2023-06-04T11:55:19;302.67;;;292.80;;
13605;SDS011;6874;52.084;5.090;2023-06-04T11:57:47;282.17;;;273.03;;
13605;SDS011;6874;52.084;5.090;2023-06-04T12:00:14;254.13;;;246.00;;
13605;SDS011;6874;52.084;5.090;2023-06-04T12:02:55;232.57;;;225.13;;
13605;SDS011;6874;52.084;5.090;2023-06-04T12:05:22;215.37;;;208.53;;
13605;SDS011;6874;52.084;5.090;2023-06-04T12:08:08;206.57;;;200.00;;
13605;SDS011;6874;52.084;5.090;2023-06-04T12:10:38;200.80;;;194.40;;
13605;SDS011;6874;52.084;5.090;2023-06-04T12:13:08;221.33;;;214.37;;
13605;SDS011;6874;52.084;5.090;2023-06-04T12:15:34;219.60;;;212.67;;
13605;SDS011;6874;52.084;5.090;2023-06-04T12:18:00;203.23;;;196.80;;
13605;SDS011;6874;52.084;5.090;2023-06-04T12:20:36;202.77;;;196.33;;
13605;SDS011;6874;52.084;5.090;2023-06-04T12:23:03;201.37;;;195.00;;
13605;SDS011;6874;52.084;5.090;2023-06-04T12:25:30;193.97;;;187.73;;
13605;SDS011;6874;52.084;5.090;2023-06-04T12:27:56;172.37;;;166.77;;
13605;SDS011;6874;52.084;5.090;2023-06-04T12:30:22;144.70;;;140.00;;
13605;SDS011;6874;52.084;5.090;2023-06-04T12:32:48;132.00;;;127.67;;
13605;SDS011;6874;52.084;5.090;2023-06-04T12:35:15;141.77;;;137.10;;
13605;SDS011;6874;52.084;5.090;2023-06-04T12:37:41;163.03;;;157.77;;
13605;SDS011;6874;52.084;5.090;2023-06-04T12:40:07;139.13;;;134.53;;
13605;SDS011;6874;52.084;5.090;2023-06-04T12:42:33;169.50;;;164.03;;
13605;SDS011;6874;52.084;5.090;2023-06-04T12:44:59;196.97;;;190.63;;
13605;SDS011;6874;52.084;5.090;2023-06-04T12:47:25;196.03;;;189.77;;
13605;SDS011;6874;52.084;5.090;2023-06-04T12:49:50;204.93;;;198.43;;
13605;SDS011;6874;52.084;5.090;2023-06-04T12:52:17;197.43;;;191.13;;
13605;SDS011;6874;52.084;5.090;2023-06-04T12:54:43;171.53;;;166.00;;
13605;SDS011;6874;52.084;5.090;2023-06-04T12:57:08;192.40;;;186.27;;
13605;SDS011;6874;52.084;5.090;2023-06-04T12:59:34;196.97;;;190.73;;
13605;SDS011;6874;52.084;5.090;2023-06-04T13:02:00;207.47;;;200.87;;
13605;SDS011;6874;52.084;5.090;2023-06-04T13:04:26;192.93;;;186.80;;
13605;SDS011;6874;52.084;5.090;2023-06-04T13:06:51;206.47;;;199.93;;
13605;SDS011;6874;52.084;5.090;2023-06-04T13:09:20;189.17;;;183.17;;
13605;SDS011;6874;52.084;5.090;2023-06-04T13:11:47;181.30;;;175.50;;
13605;SDS011;6874;52.084;5.090;2023-06-04T13:14:13;181.13;;;175.37;;
13605;SDS011;6874;52.084;5.090;2023-06-04T13:16:39;150.10;;;145.27;;
13605;SDS011;6874;52.084;5.090;2023-06-04T13:19:05;159.43;;;154.37;;
13605;SDS011;6874;52.084;5.090;2023-06-04T13:21:31;181.43;;;175.73;;
13605;SDS011;6874;52.084;5.090;2023-06-04T13:23:57;164.37;;;159.13;;
13605;SDS011;6874;52.084;5.090;2023-06-04T13:26:23;155.57;;;150.57;;
13605;SDS011;6874;52.084;5.090;2023-06-04T13:28:48;103.57;;;100.27;;
13605;SDS011;6874;52.084;5.090;2023-06-04T13:31:14;107.53;;;104.07;;
13605;SDS011;6874;52.084;5.090;2023-06-04T13:33:40;129.13;;;125.00;;
13605;SDS011;6874;52.084;5.090;2023-06-04T13:36:06;131.17;;;126.97;;
13605;SDS011;6874;52.084;5.090;2023-06-04T13:38:32;162.20;;;157.07;;
13605;SDS011;6874;52.084;5.090;2023-06-04T13:40:58;200.50;;;194.20;;
13605;SDS011;6874;52.084;5.090;2023-06-04T13:43:24;214.63;;;207.87;;
13605;SDS011;6874;52.084;5.090;2023-06-04T13:45:50;236.27;;;228.77;;
13605;SDS011;6874;52.084;5.090;2023-06-04T13:48:15;244.37;;;236.50;;
13605;SDS011;6874;52.084;5.090;2023-06-04T13:50:41;236.37;;;228.60;;
13605;SDS011;6874;52.084;5.090;2023-06-04T13:53:08;220.03;;;212.67;;
13605;SDS011;6874;52.084;5.090;2023-06-04T13:55:34;178.57;;;172.47;;
13605;SDS011;6874;52.084;5.090;2023-06-04T13:57:59;155.27;;;150.00;;
13605;SDS011;6874;52.084;5.090;2023-06-04T14:00:25;137.23;;;132.63;;
13605;SDS011;6874;52.084;5.090;2023-06-04T14:02:52;140.67;;;136.00;;
13605;SDS011;6874;52.084;5.090;2023-06-04T14:05:19;141.10;;;136.40;;
13605;SDS011;6874;52.084;5.090;2023-06-04T14:07:45;131.13;;;126.77;;
13605;SDS011;6874;52.084;5.090;2023-06-04T14:10:11;143.10;;;138.33;;
13605;SDS011;6874;52.084;5.090;2023-06-04T14:12:37;137.40;;;132.87;;
13605;SDS011;6874;52.084;5.090;2023-06-04T14:15:04;148.80;;;143.90;;
13605;SDS011;6874;52.084;5.090;2023-06-04T14:17:31;159.03;;;153.77;;
13605;SDS011;6874;52.084;5.090;2023-06-04T14:19:59;168.80;;;163.23;;
13605;SDS011;6874;52.084;5.090;2023-06-04T14:22:24;169.93;;;164.23;;
13605;SDS011;6874;52.084;5.090;2023-06-04T14:24:50;171.60;;;165.93;;
13605;SDS011;6874;52.084;5.090;2023-06-04T14:27:16;173.17;;;167.47;;